Terminal Aerodrome Forecast
Issued by NWS

Home | Current Version | Previous Version | Text Only | Print | Product List | Glossary On
Versions: 1 2 3 4 5 6 7 8 9 10 11 12 13 14 15 16 17 18 19
000
FTUS43 KMQT 251948 AAA
TAFIWD
TAF AMD
KIWD 251948Z 2520/2618 33005KT 6SM -SHRA VCTS SCT010 BKN020CB
     FM252100 32005KT P6SM -SHRA BKN020
     FM260200 31007KT 3SM -SHRA BR OVC006
     FM260700 33006KT 1SM BR VCSH BKN006
     FM261500 32006KT P6SM BKN020
     FM261600 32006KT P6SM BKN050=

USA.gov is the U.S. government's official web portal to all federal, state and local government web resources and services.